Megri, Armenia

10:27 PM AMT on September 23, 2014 (GMT +0400)
NAKHCHIVAN | Change Station
CLOSE
Current Station
Airport
Location: NAKHCHIVAN,
Elevation: 2864 ft
Nearby Weather Stations

Elev 2864 ft 39.19 °N, 45.46 °E | Updated -134 second ago

Clear
Clear
66 °F
Feels Like 66 °F
N
9
Wind Variable Wind from NNE

Today
High -- | Low -- °F
--% Chance of Precip.
Yesterday
High -- | Low -- °F
Precip. -- in
6:43 AM 6:51 PM
Waning Crescent, 0% visible
Pressure 29.86 in
Visibility 6.2 miles
Clouds
Dew Point 39 °F
Humidity 37%
Rainfall 0.00 in
Snow Depth Not available.
UV Not available.
Pollen Not available.
Air Quality Not available.
Flu Activity Not available.
METAR UBBN 231830Z 02008KT 9999 NSC 19/04 Q1011 R14R/CLRD60 NOSIG RMK MT OP QFE683

More Conditions Fewer Conditions

Pressure 29.86 in
Visibility 6.2 miles
Clouds
Dew Point 39 °F
Humidity 37%
Rainfall 0.00 in
Snow Depth Not available.
UV Not available.
Pollen Not available.
Air Quality Not available.
Flu Activity Not available.
METAR UBBN 231830Z 02008KT 9999 NSC 19/04 Q1011 R14R/CLRD60 NOSIG RMK MT OP QFE683

More Conditions Fewer Conditions

10-Day Weather Forecast

Almanac

Astronomy

Sep. 23, 2014 Rise Set
Actual Time 6:43 AM AMT 6:51 PM AMT
Civil Twilight 6:16 AM AMT 7:17 PM AMT
Nautical Twilight 5:45 AM AMT 7:48 PM AMT
Astronomical Twilight 5:13 AM AMT 8:20 PM AMT
Moon 5:46 AM AMT 6:18 PM AMT
Length of Visible Light 13h 00m
Length of Day
12h 07m
Tomorrow will be 2m 31s shorter.
Waning Crescent, 0% of the Moon is Illuminated
Today
Waning Crescent
Sep 24
New
Oct 1
First Quarter
Oct 8
Full
Oct 15
Last Quarter

Today's Extremes

Country Highs Country Lows

Community

WunderPhotos

Upload Photos

1,755,771 photos uploaded!

Nearby

Snow Depth

Not available.

Earthquake Activity

City Distance Mag. Time & Date
No recent earthquake activity has been reported nearby.
Minimum magnitude displayed is 2.5.

Coastal Water Temperatures

Place Temperature
No Stations Reporting

Nearby Weather Stations